sensor_id;sensor_type;location;lat;lon;timestamp;pressure;altitude;pressure_sealevel;temperature;humidity
48204;BME280;33994;50.998;5.864;2022-09-03T00:06:19;100500.34;;;17.40;48.74
48204;BME280;33994;50.998;5.864;2022-09-03T00:09:24;100503.19;;;17.35;48.75
48204;BME280;33994;50.998;5.864;2022-09-03T00:12:14;100495.47;;;17.31;49.08
48204;BME280;33994;50.998;5.864;2022-09-03T00:18:03;100501.84;;;17.26;49.39
48204;BME280;33994;50.998;5.864;2022-09-03T00:20:53;100499.44;;;17.22;49.00
48204;BME280;33994;50.998;5.864;2022-09-03T00:23:44;100500.41;;;17.19;49.24
48204;BME280;33994;50.998;5.864;2022-09-03T00:26:33;100491.88;;;17.14;49.18
48204;BME280;33994;50.998;5.864;2022-09-03T00:29:26;100486.72;;;17.11;49.50
48204;BME280;33994;50.998;5.864;2022-09-03T00:32:17;100488.59;;;17.09;49.20
48204;BME280;33994;50.998;5.864;2022-09-03T00:35:10;100494.78;;;17.08;49.33
48204;BME280;33994;50.998;5.864;2022-09-03T00:37:59;100501.09;;;17.06;49.61
48204;BME280;33994;50.998;5.864;2022-09-03T00:40:52;100499.53;;;17.01;49.67
48204;BME280;33994;50.998;5.864;2022-09-03T00:43:53;100502.16;;;17.01;49.75
48204;BME280;33994;50.998;5.864;2022-09-03T00:46:43;100503.16;;;16.99;49.57
48204;BME280;33994;50.998;5.864;2022-09-03T01:05:10;100506.25;;;16.90;50.04
48204;BME280;33994;50.998;5.864;2022-09-03T01:08:19;100503.88;;;16.84;49.89
48204;BME280;33994;50.998;5.864;2022-09-03T01:11:26;100498.59;;;16.84;49.80
48204;BME280;33994;50.998;5.864;2022-09-03T01:14:33;100498.81;;;16.79;49.87
48204;BME280;33994;50.998;5.864;2022-09-03T01:27:13;100500.81;;;16.72;50.02
48204;BME280;33994;50.998;5.864;2022-09-03T01:42:28;100502.25;;;16.61;50.37
48204;BME280;33994;50.998;5.864;2022-09-03T01:57:18;100494.66;;;16.53;50.25
48204;BME280;33994;50.998;5.864;2022-09-03T02:00:14;100496.38;;;16.54;50.03
48204;BME280;33994;50.998;5.864;2022-09-03T02:03:04;100493.72;;;16.54;49.81
48204;BME280;33994;50.998;5.864;2022-09-03T02:05:50;100492.78;;;16.55;49.97
48204;BME280;33994;50.998;5.864;2022-09-03T02:08:35;100508.63;;;16.55;50.17
48204;BME280;33994;50.998;5.864;2022-09-03T02:11:21;100499.00;;;16.54;50.06
48204;BME280;33994;50.998;5.864;2022-09-03T02:14:06;100499.81;;;16.56;50.02
48204;BME280;33994;50.998;5.864;2022-09-03T02:16:54;100491.94;;;16.54;50.08
48204;BME280;33994;50.998;5.864;2022-09-03T02:19:40;100498.16;;;16.53;50.01
48204;BME280;33994;50.998;5.864;2022-09-03T02:22:25;100487.59;;;16.53;49.97
48204;BME280;33994;50.998;5.864;2022-09-03T02:25:11;100491.09;;;16.54;50.13
48204;BME280;33994;50.998;5.864;2022-09-03T02:27:57;100496.38;;;16.54;50.01
48204;BME280;33994;50.998;5.864;2022-09-03T02:30:44;100491.09;;;16.54;49.98
48204;BME280;33994;50.998;5.864;2022-09-03T02:33:36;100485.03;;;16.52;50.26
48204;BME280;33994;50.998;5.864;2022-09-03T02:36:37;100481.53;;;16.51;50.03
48204;BME280;33994;50.998;5.864;2022-09-03T02:39:23;100482.53;;;16.49;50.31
48204;BME280;33994;50.998;5.864;2022-09-03T02:42:12;100494.06;;;16.46;50.38
48204;BME280;33994;50.998;5.864;2022-09-03T02:45:06;100489.00;;;16.42;50.28
48204;BME280;33994;50.998;5.864;2022-09-03T02:47:56;100490.78;;;16.41;50.57
48204;BME280;33994;50.998;5.864;2022-09-03T02:50:43;100494.41;;;16.39;50.54
48204;BME280;33994;50.998;5.864;2022-09-03T02:53:28;100485.78;;;16.35;50.58
48204;BME280;33994;50.998;5.864;2022-09-03T02:56:13;100486.78;;;16.33;50.69
48204;BME280;33994;50.998;5.864;2022-09-03T02:58:58;100489.44;;;16.33;50.96
48204;BME280;33994;50.998;5.864;2022-09-03T03:01:44;100489.34;;;16.34;50.86
48204;BME280;33994;50.998;5.864;2022-09-03T03:04:29;100487.78;;;16.30;50.71
48204;BME280;33994;50.998;5.864;2022-09-03T03:07:15;100487.84;;;16.28;50.76
48204;BME280;33994;50.998;5.864;2022-09-03T03:10:00;100484.28;;;16.29;50.92
48204;BME280;33994;50.998;5.864;2022-09-03T03:12:46;100481.75;;;16.26;51.05
48204;BME280;33994;50.998;5.864;2022-09-03T03:15:31;100475.75;;;16.23;50.91
48204;BME280;33994;50.998;5.864;2022-09-03T03:18:16;100475.84;;;16.21;50.94
48204;BME280;33994;50.998;5.864;2022-09-03T03:21:08;100487.31;;;16.20;50.93
48204;BME280;33994;50.998;5.864;2022-09-03T03:23:54;100482.81;;;16.22;51.01
48204;BME280;33994;50.998;5.864;2022-09-03T03:26:39;100482.03;;;16.20;50.83
48204;BME280;33994;50.998;5.864;2022-09-03T03:29:25;100483.88;;;16.18;51.05
48204;BME280;33994;50.998;5.864;2022-09-03T03:32:14;100483.75;;;16.21;51.10
48204;BME280;33994;50.998;5.864;2022-09-03T03:34:59;100492.56;;;16.20;50.94
48204;BME280;33994;50.998;5.864;2022-09-03T03:37:45;100489.94;;;16.20;50.96
48204;BME280;33994;50.998;5.864;2022-09-03T03:40:30;100494.31;;;16.21;51.03
48204;BME280;33994;50.998;5.864;2022-09-03T03:43:17;100494.38;;;16.20;50.98
48204;BME280;33994;50.998;5.864;2022-09-03T03:46:02;100487.31;;;16.20;51.25
48204;BME280;33994;50.998;5.864;2022-09-03T03:48:51;100489.03;;;16.21;51.04
48204;BME280;33994;50.998;5.864;2022-09-03T03:51:38;100498.66;;;16.22;51.14
48204;BME280;33994;50.998;5.864;2022-09-03T03:54:24;100488.09;;;16.22;51.13
48204;BME280;33994;50.998;5.864;2022-09-03T03:57:09;100487.16;;;16.23;51.15
48204;BME280;33994;50.998;5.864;2022-09-03T03:59:55;100484.50;;;16.25;51.16
48204;BME280;33994;50.998;5.864;2022-09-03T04:02:40;100490.63;;;16.25;51.11
48204;BME280;33994;50.998;5.864;2022-09-03T04:05:25;100488.88;;;16.24;51.06
48204;BME280;33994;50.998;5.864;2022-09-03T04:08:10;100488.03;;;16.24;51.26
48204;BME280;33994;50.998;5.864;2022-09-03T04:11:00;100484.50;;;16.25;51.29
48204;BME280;33994;50.998;5.864;2022-09-03T04:13:46;100487.84;;;16.28;51.03
48204;BME280;33994;50.998;5.864;2022-09-03T04:16:32;100485.22;;;16.28;51.19
48204;BME280;33994;50.998;5.864;2022-09-03T04:19:17;100480.91;;;16.26;51.28
48204;BME280;33994;50.998;5.864;2022-09-03T04:22:03;100483.47;;;16.27;51.27
48204;BME280;33994;50.998;5.864;2022-09-03T04:24:49;100487.84;;;16.28;51.21
48204;BME280;33994;50.998;5.864;2022-09-03T04:27:34;100492.19;;;16.29;51.34
48204;BME280;33994;50.998;5.864;2022-09-03T04:30:20;100486.91;;;16.29;51.28
48204;BME280;33994;50.998;5.864;2022-09-03T04:33:05;100491.34;;;16.29;51.21
48204;BME280;33994;50.998;5.864;2022-09-03T04:35:50;100493.03;;;16.30;51.35
48204;BME280;33994;50.998;5.864;2022-09-03T04:41:30;100487.56;;;16.35;51.38
48204;BME280;33994;50.998;5.864;2022-09-03T04:44:15;100484.19;;;16.31;51.51
48204;BME280;33994;50.998;5.864;2022-09-03T04:47:00;100484.16;;;16.33;51.50
48204;BME280;33994;50.998;5.864;2022-09-03T04:49:45;100483.25;;;16.32;51.65
48204;BME280;33994;50.998;5.864;2022-09-03T04:52:31;100487.63;;;16.33;51.59
48204;BME280;33994;50.998;5.864;2022-09-03T04:55:17;100485.84;;;16.34;51.75
48204;BME280;33994;50.998;5.864;2022-09-03T04:58:03;100487.69;;;16.32;51.49
48204;BME280;33994;50.998;5.864;2022-09-03T05:00:50;100493.78;;;16.34;51.80
48204;BME280;33994;50.998;5.864;2022-09-03T05:03:36;100491.91;;;16.36;51.84
48204;BME280;33994;50.998;5.864;2022-09-03T05:06:21;100496.34;;;16.35;51.74
48204;BME280;33994;50.998;5.864;2022-09-03T05:09:08;100488.50;;;16.34;51.61
48204;BME280;33994;50.998;5.864;2022-09-03T05:11:53;100502.63;;;16.33;51.85
48204;BME280;33994;50.998;5.864;2022-09-03T05:14:39;100494.53;;;16.36;52.02
48204;BME280;33994;50.998;5.864;2022-09-03T05:17:25;100497.13;;;16.37;52.03
48204;BME280;33994;50.998;5.864;2022-09-03T05:20:11;100498.00;;;16.38;51.89
48204;BME280;33994;50.998;5.864;2022-09-03T05:22:56;100495.22;;;16.41;52.06
48204;BME280;33994;50.998;5.864;2022-09-03T05:25:41;100499.47;;;16.43;52.06
48204;BME280;33994;50.998;5.864;2022-09-03T05:28:29;100500.22;;;16.47;52.02
48204;BME280;33994;50.998;5.864;2022-09-03T05:31:17;100504.59;;;16.48;52.10
48204;BME280;33994;50.998;5.864;2022-09-03T05:34:04;100498.25;;;16.52;51.96
48204;BME280;33994;50.998;5.864;2022-09-03T05:36:49;100499.72;;;16.58;51.70
48204;BME280;33994;50.998;5.864;2022-09-03T05:39:36;100490.69;;;16.63;51.62
48204;BME280;33994;50.998;5.864;2022-09-03T05:42:21;100496.53;;;16.70;51.56
48204;BME280;33994;50.998;5.864;2022-09-03T05:45:08;100502.44;;;16.76;51.64
48204;BME280;33994;50.998;5.864;2022-09-03T05:47:53;100496.06;;;16.81;51.37
48204;BME280;33994;50.998;5.864;2022-09-03T05:50:39;100500.28;;;16.85;51.33
48204;BME280;33994;50.998;5.864;2022-09-03T05:53:26;100494.88;;;16.88;51.24
48204;BME280;33994;50.998;5.864;2022-09-03T05:56:16;100493.81;;;16.92;51.53
48204;BME280;33994;50.998;5.864;2022-09-03T05:59:04;100503.16;;;16.99;51.06
48204;BME280;33994;50.998;5.864;2022-09-03T06:01:52;100503.78;;;17.04;51.04
48204;BME280;33994;50.998;5.864;2022-09-03T06:04:37;100495.59;;;17.10;51.15
48204;BME280;33994;50.998;5.864;2022-09-03T06:07:23;100500.78;;;17.12;50.97
48204;BME280;33994;50.998;5.864;2022-09-03T06:10:10;100502.34;;;17.16;51.16
48204;BME280;33994;50.998;5.864;2022-09-03T06:12:55;100496.88;;;17.20;50.84
48204;BME280;33994;50.998;5.864;2022-09-03T06:15:46;100505.28;;;17.29;50.77
48204;BME280;33994;50.998;5.864;2022-09-03T06:18:32;100499.88;;;17.32;50.73
48204;BME280;33994;50.998;5.864;2022-09-03T06:21:18;100506.84;;;17.33;50.90
48204;BME280;33994;50.998;5.864;2022-09-03T06:24:04;100505.69;;;17.38;50.83
48204;BME280;33994;50.998;5.864;2022-09-03T06:26:49;100509.13;;;17.40;50.90
48204;BME280;33994;50.998;5.864;2022-09-03T06:29:35;100512.47;;;17.44;50.60
48204;BME280;33994;50.998;5.864;2022-09-03T06:32:22;100510.69;;;17.44;50.68
48204;BME280;33994;50.998;5.864;2022-09-03T06:35:08;100523.06;;;17.44;50.97
48204;BME280;33994;50.998;5.864;2022-09-03T06:37:53;100511.63;;;17.43;51.16
48204;BME280;33994;50.998;5.864;2022-09-03T06:40:39;100511.63;;;17.43;51.05
48204;BME280;33994;50.998;5.864;2022-09-03T06:43:24;100509.69;;;17.47;50.92
48204;BME280;33994;50.998;5.864;2022-09-03T06:46:12;100515.75;;;17.49;51.19
48204;BME280;33994;50.998;5.864;2022-09-03T06:48:58;100515.59;;;17.52;50.98
48204;BME280;33994;50.998;5.864;2022-09-03T06:51:44;100516.38;;;17.54;50.97
48204;BME280;33994;50.998;5.864;2022-09-03T06:54:29;100513.59;;;17.57;51.21
48204;BME280;33994;50.998;5.864;2022-09-03T06:57:15;100519.66;;;17.59;51.08
48204;BME280;33994;50.998;5.864;2022-09-03T07:00:00;100522.22;;;17.61;51.15
48204;BME280;33994;50.998;5.864;2022-09-03T07:02:47;100517.56;;;17.66;51.53
48204;BME280;33994;50.998;5.864;2022-09-03T07:05:34;100525.66;;;17.63;51.87
48204;BME280;33994;50.998;5.864;2022-09-03T07:08:20;100521.94;;;17.67;51.63
48204;BME280;33994;50.998;5.864;2022-09-03T07:11:08;100529.66;;;17.71;51.69
48204;BME280;33994;50.998;5.864;2022-09-03T07:13:54;100528.50;;;17.77;51.72
48204;BME280;33994;50.998;5.864;2022-09-03T07:16:40;100529.16;;;17.82;51.66
48204;BME280;33994;50.998;5.864;2022-09-03T07:19:26;100526.19;;;17.88;52.00
48204;BME280;33994;50.998;5.864;2022-09-03T07:22:11;100530.31;;;17.94;51.67
48204;BME280;33994;50.998;5.864;2022-09-03T07:24:57;100527.44;;;17.98;51.26
48204;BME280;33994;50.998;5.864;2022-09-03T07:27:42;100526.28;;;18.04;51.08
48204;BME280;33994;50.998;5.864;2022-09-03T07:30:27;100530.25;;;18.13;51.25
48204;BME280;33994;50.998;5.864;2022-09-03T07:33:13;100527.50;;;18.14;51.19
48204;BME280;33994;50.998;5.864;2022-09-03T07:36:05;100528.16;;;18.19;51.37
48204;BME280;33994;50.998;5.864;2022-09-03T07:38:54;100523.63;;;18.21;51.13
48204;BME280;33994;50.998;5.864;2022-09-03T07:41:41;100521.56;;;18.27;51.20
48204;BME280;33994;50.998;5.864;2022-09-03T07:44:29;100524.06;;;18.30;51.28
48204;BME280;33994;50.998;5.864;2022-09-03T07:47:14;100526.66;;;18.31;51.60
48204;BME280;33994;50.998;5.864;2022-09-03T07:50:02;100527.50;;;18.32;51.84
48204;BME280;33994;50.998;5.864;2022-09-03T07:52:48;100525.78;;;18.31;52.10
48204;BME280;33994;50.998;5.864;2022-09-03T07:55:34;100533.41;;;18.37;52.13
48204;BME280;33994;50.998;5.864;2022-09-03T07:58:19;100530.66;;;18.38;51.83
48204;BME280;33994;50.998;5.864;2022-09-03T08:01:13;100534.13;;;18.40;51.98
48204;BME280;33994;50.998;5.864;2022-09-03T08:03:59;100538.25;;;18.46;51.91
48204;BME280;33994;50.998;5.864;2022-09-03T08:06:45;100536.91;;;18.55;52.28
48204;BME280;33994;50.998;5.864;2022-09-03T08:09:30;100534.63;;;18.64;52.05
48204;BME280;33994;50.998;5.864;2022-09-03T08:12:16;100535.78;;;18.76;51.98
48204;BME280;33994;50.998;5.864;2022-09-03T08:15:02;100534.44;;;18.85;52.03
48204;BME280;33994;50.998;5.864;2022-09-03T08:17:47;100537.69;;;18.90;51.97
48204;BME280;33994;50.998;5.864;2022-09-03T08:20:33;100541.97;;;18.92;51.81
48204;BME280;33994;50.998;5.864;2022-09-03T08:23:18;100533.09;;;18.93;52.02
48204;BME280;33994;50.998;5.864;2022-09-03T08:26:04;100540.78;;;18.98;51.93
48204;BME280;33994;50.998;5.864;2022-09-03T08:28:51;100544.03;;;19.03;51.99
48204;BME280;33994;50.998;5.864;2022-09-03T08:31:37;100541.22;;;19.06;51.99
48204;BME280;33994;50.998;5.864;2022-09-03T08:34:23;100541.06;;;19.09;51.98
48204;BME280;33994;50.998;5.864;2022-09-03T08:37:08;100539.00;;;19.14;52.19
48204;BME280;33994;50.998;5.864;2022-09-03T08:39:53;100544.75;;;19.23;52.45
48204;BME280;33994;50.998;5.864;2022-09-03T08:45:52;100548.31;;;19.37;53.01
48204;BME280;33994;50.998;5.864;2022-09-03T08:48:38;100551.50;;;19.44;53.08
48204;BME280;33994;50.998;5.864;2022-09-03T08:51:24;100552.16;;;19.49;53.01
48204;BME280;33994;50.998;5.864;2022-09-03T08:54:12;100548.38;;;19.53;53.27
48204;BME280;33994;50.998;5.864;2022-09-03T08:57:00;100554.34;;;19.57;53.21
48204;BME280;33994;50.998;5.864;2022-09-03T08:59:52;100558.44;;;19.62;53.16
48204;BME280;33994;50.998;5.864;2022-09-03T09:02:52;100557.16;;;19.69;52.84
48204;BME280;33994;50.998;5.864;2022-09-03T09:05:48;100563.84;;;19.77;52.70
48204;BME280;33994;50.998;5.864;2022-09-03T09:08:51;100562.53;;;19.84;52.34
48204;BME280;33994;50.998;5.864;2022-09-03T09:20:56;100567.41;;;20.22;51.81
48204;BME280;33994;50.998;5.864;2022-09-03T09:23:48;100566.84;;;20.31;51.60
48204;BME280;33994;50.998;5.864;2022-09-03T09:26:34;100569.94;;;20.39;51.74
48204;BME280;33994;50.998;5.864;2022-09-03T09:29:20;100569.38;;;20.48;51.47
48204;BME280;33994;50.998;5.864;2022-09-03T09:32:08;100571.38;;;20.59;51.26
48204;BME280;33994;50.998;5.864;2022-09-03T09:34:54;100566.56;;;20.65;51.30
48204;BME280;33994;50.998;5.864;2022-09-03T09:37:51;100563.13;;;20.78;51.94
48204;BME280;33994;50.998;5.864;2022-09-03T09:40:39;100566.75;;;20.91;51.40
48204;BME280;33994;50.998;5.864;2022-09-03T09:43:25;100565.31;;;21.00;50.94
48204;BME280;33994;50.998;5.864;2022-09-03T09:46:14;100559.63;;;21.06;50.71
48204;BME280;33994;50.998;5.864;2022-09-03T09:49:01;100563.69;;;21.11;50.88
48204;BME280;33994;50.998;5.864;2022-09-03T09:51:46;100561.63;;;21.17;50.75
48204;BME280;33994;50.998;5.864;2022-09-03T09:54:32;100559.56;;;21.22;50.67
48204;BME280;33994;50.998;5.864;2022-09-03T09:57:23;100562.75;;;21.27;50.61
48204;BME280;33994;50.998;5.864;2022-09-03T10:00:15;100558.94;;;21.31;51.11
48204;BME280;33994;50.998;5.864;2022-09-03T10:03:00;100556.75;;;21.37;51.14
48204;BME280;33994;50.998;5.864;2022-09-03T10:05:57;100556.16;;;21.47;51.80
48204;BME280;33994;50.998;5.864;2022-09-03T10:08:44;100551.41;;;21.52;51.53
48204;BME280;33994;50.998;5.864;2022-09-03T10:11:29;100545.00;;;21.54;51.55
48204;BME280;33994;50.998;5.864;2022-09-03T10:14:43;100555.66;;;21.54;52.06
48204;BME280;33994;50.998;5.864;2022-09-03T10:26:58;100545.94;;;21.68;52.47
48204;BME280;33994;50.998;5.864;2022-09-03T10:29:44;100550.63;;;21.77;52.39
48204;BME280;33994;50.998;5.864;2022-09-03T10:32:44;100547.00;;;21.78;52.69
48204;BME280;33994;50.998;5.864;2022-09-03T10:35:37;100553.88;;;21.82;52.27
48204;BME280;33994;50.998;5.864;2022-09-03T10:38:32;100547.47;;;21.84;52.29
48204;BME280;33994;50.998;5.864;2022-09-03T10:44:23;100542.16;;;21.84;52.62
48204;BME280;33994;50.998;5.864;2022-09-03T10:47:20;100547.00;;;21.78;52.22
48204;BME280;33994;50.998;5.864;2022-09-03T10:50:15;100547.91;;;21.78;52.55
48204;BME280;33994;50.998;5.864;2022-09-03T10:53:38;100539.59;;;21.83;52.55
48204;BME280;33994;50.998;5.864;2022-09-03T11:03:19;100550.78;;;21.88;52.26
48204;BME280;33994;50.998;5.864;2022-09-03T11:06:28;100537.38;;;21.90;52.71
48204;BME280;33994;50.998;5.864;2022-09-03T11:09:22;100537.75;;;21.98;52.52
48204;BME280;33994;50.998;5.864;2022-09-03T11:12:15;100537.13;;;22.07;52.53
48204;BME280;33994;50.998;5.864;2022-09-03T11:15:09;100534.34;;;22.08;52.49
48204;BME280;33994;50.998;5.864;2022-09-03T11:18:04;100530.94;;;22.06;52.83
48204;BME280;33994;50.998;5.864;2022-09-03T11:20:55;100529.25;;;22.05;52.94
48204;BME280;33994;50.998;5.864;2022-09-03T11:23:46;100535.09;;;22.10;53.40
48204;BME280;33994;50.998;5.864;2022-09-03T11:26:34;100538.88;;;22.21;53.56
48204;BME280;33994;50.998;5.864;2022-09-03T11:41:12;100526.06;;;22.26;51.20
48204;BME280;33994;50.998;5.864;2022-09-03T11:43:58;100517.56;;;22.21;50.99
48204;BME280;33994;50.998;5.864;2022-09-03T11:46:54;100521.38;;;22.17;51.32
48204;BME280;33994;50.998;5.864;2022-09-03T11:49:46;100524.59;;;22.22;51.58
48204;BME280;33994;50.998;5.864;2022-09-03T11:52:33;100512.88;;;22.24;51.51
48204;BME280;33994;50.998;5.864;2022-09-03T11:55:31;100511.59;;;22.30;51.46
48204;BME280;33994;50.998;5.864;2022-09-03T11:58:28;100514.56;;;22.38;51.32
48204;BME280;33994;50.998;5.864;2022-09-03T12:01:16;100514.88;;;22.46;51.12
48204;BME280;33994;50.998;5.864;2022-09-03T12:04:05;100507.78;;;22.47;50.51
48204;BME280;33994;50.998;5.864;2022-09-03T12:07:08;100516.50;;;22.49;50.64
48204;BME280;33994;50.998;5.864;2022-09-03T12:10:14;100521.09;;;22.47;50.73
48204;BME280;33994;50.998;5.864;2022-09-03T12:13:13;100515.44;;;22.51;50.94
48204;BME280;33994;50.998;5.864;2022-09-03T12:19:08;100517.91;;;22.54;50.96
48204;BME280;33994;50.998;5.864;2022-09-03T12:21:55;100527.59;;;22.55;51.33
48204;BME280;33994;50.998;5.864;2022-09-03T12:24:41;100516.50;;;22.49;51.04
48204;BME280;33994;50.998;5.864;2022-09-03T12:27:31;100515.84;;;22.45;51.15
48204;BME280;33994;50.998;5.864;2022-09-03T12:30:21;100514.88;;;22.46;51.36
48204;BME280;33994;50.998;5.864;2022-09-03T12:33:07;100523.00;;;22.45;51.30
48204;BME280;33994;50.998;5.864;2022-09-03T12:35:57;100517.78;;;22.43;51.12
48204;BME280;33994;50.998;5.864;2022-09-03T12:38:43;100508.81;;;22.44;51.27
48204;BME280;33994;50.998;5.864;2022-09-03T12:41:30;100510.53;;;22.45;51.18
48204;BME280;33994;50.998;5.864;2022-09-03T12:47:17;100504.22;;;22.46;51.39
48204;BME280;33994;50.998;5.864;2022-09-03T12:50:09;100508.38;;;22.50;51.67
48204;BME280;33994;50.998;5.864;2022-09-03T12:53:00;100502.84;;;22.53;51.32
48204;BME280;33994;50.998;5.864;2022-09-03T12:55:52;100510.50;;;22.58;51.32
48204;BME280;33994;50.998;5.864;2022-09-03T12:58:54;100498.78;;;22.60;51.03
48204;BME280;33994;50.998;5.864;2022-09-03T13:01:47;100499.44;;;22.64;50.67
48204;BME280;33994;50.998;5.864;2022-09-03T13:04:35;100499.44;;;22.64;50.68
48204;BME280;33994;50.998;5.864;2022-09-03T13:07:31;100502.94;;;22.65;50.60
48204;BME280;33994;50.998;5.864;2022-09-03T13:10:28;100503.53;;;22.70;50.68
48204;BME280;33994;50.998;5.864;2022-09-03T13:13:23;100492.63;;;22.73;50.73
48204;BME280;33994;50.998;5.864;2022-09-03T13:25:18;100493.25;;;22.76;49.95
48204;BME280;33994;50.998;5.864;2022-09-03T13:36:54;100499.53;;;22.88;49.85
48204;BME280;33994;50.998;5.864;2022-09-03T13:39:52;100507.31;;;22.91;50.13
48204;BME280;33994;50.998;5.864;2022-09-03T13:42:41;100500.06;;;22.93;50.27
48204;BME280;33994;50.998;5.864;2022-09-03T13:46:05;100505.28;;;22.95;50.17
48204;BME280;33994;50.998;5.864;2022-09-03T13:48:43;100500.72;;;22.97;49.98
48204;BME280;33994;50.998;5.864;2022-09-03T13:51:57;100504.09;;;22.99;49.93
48204;BME280;33994;50.998;5.864;2022-09-03T13:54:50;100498.75;;;22.99;49.76
48204;BME280;33994;50.998;5.864;2022-09-03T13:57:48;100494.91;;;23.03;49.46
48204;BME280;33994;50.998;5.864;2022-09-03T14:03:54;100505.56;;;23.03;49.65
48204;BME280;33994;50.998;5.864;2022-09-03T14:06:45;100497.69;;;23.01;49.60
48204;BME280;33994;50.998;5.864;2022-09-03T14:09:57;100494.81;;;23.04;49.92
48204;BME280;33994;50.998;5.864;2022-09-03T14:12:52;100505.16;;;23.09;50.08
48204;BME280;33994;50.998;5.864;2022-09-03T14:16:06;100500.72;;;23.21;50.22
48204;BME280;33994;50.998;5.864;2022-09-03T14:18:58;100512.44;;;23.31;49.79
48204;BME280;33994;50.998;5.864;2022-09-03T14:22:13;100507.97;;;23.31;48.57
48204;BME280;33994;50.998;5.864;2022-09-03T14:25:29;100506.22;;;23.30;48.75
48204;BME280;33994;50.998;5.864;2022-09-03T14:28:28;100508.06;;;23.30;48.86
48204;BME280;33994;50.998;5.864;2022-09-03T14:37:36;100503.56;;;23.30;48.70
48204;BME280;33994;50.998;5.864;2022-09-03T14:40:42;100503.69;;;23.29;48.88
48204;BME280;33994;50.998;5.864;2022-09-03T14:52:57;100501.63;;;23.45;48.86
48204;BME280;33994;50.998;5.864;2022-09-03T15:11:27;100504.63;;;23.41;48.50
48204;BME280;33994;50.998;5.864;2022-09-03T15:14:21;100504.53;;;23.42;48.36
48204;BME280;33994;50.998;5.864;2022-09-03T15:20:19;100512.06;;;23.48;48.21
48204;BME280;33994;50.998;5.864;2022-09-03T15:29:33;100511.84;;;23.51;48.29
48204;BME280;33994;50.998;5.864;2022-09-03T15:32:36;100516.22;;;23.52;48.25
48204;BME280;33994;50.998;5.864;2022-09-03T15:44:25;100519.06;;;23.62;48.17
48204;BME280;33994;50.998;5.864;2022-09-03T15:47:27;100519.91;;;23.63;48.22
48204;BME280;33994;50.998;5.864;2022-09-03T15:50:34;100528.78;;;23.63;49.72
48204;BME280;33994;50.998;5.864;2022-09-03T15:53:32;100517.34;;;23.61;49.57
48204;BME280;33994;50.998;5.864;2022-09-03T15:56:27;100524.41;;;23.62;49.61
48204;BME280;33994;50.998;5.864;2022-09-03T16:08:01;100526.50;;;23.70;50.27
48204;BME280;33994;50.998;5.864;2022-09-03T16:14:13;100533.97;;;23.65;50.50
48204;BME280;33994;50.998;5.864;2022-09-03T16:17:30;100527.16;;;23.61;50.38
48204;BME280;33994;50.998;5.864;2022-09-03T16:20:22;100528.38;;;23.56;50.45
48204;BME280;33994;50.998;5.864;2022-09-03T16:23:20;100532.22;;;23.52;50.58
48204;BME280;33994;50.998;5.864;2022-09-03T16:29:26;100526.81;;;23.41;51.09
48204;BME280;33994;50.998;5.864;2022-09-03T16:32:26;100528.00;;;23.37;51.19
48204;BME280;33994;50.998;5.864;2022-09-03T16:47:23;100537.66;;;23.27;51.63
48204;BME280;33994;50.998;5.864;2022-09-03T16:50:36;100536.88;;;23.25;51.32
48204;BME280;33994;50.998;5.864;2022-09-03T16:53:28;100532.63;;;23.22;51.41
48204;BME280;33994;50.998;5.864;2022-09-03T17:06:00;100540.00;;;23.19;52.28
48204;BME280;33994;50.998;5.864;2022-09-03T17:09:04;100546.41;;;23.16;52.63
48204;BME280;33994;50.998;5.864;2022-09-03T17:12:13;100546.50;;;23.15;53.19
48204;BME280;33994;50.998;5.864;2022-09-03T17:15:29;100552.94;;;23.12;53.26
48204;BME280;33994;50.998;5.864;2022-09-03T17:24:36;100565.84;;;23.05;53.37
48204;BME280;33994;50.998;5.864;2022-09-03T17:27:32;100564.38;;;23.01;53.37
48204;BME280;33994;50.998;5.864;2022-09-03T17:30:20;100557.44;;;22.99;53.01
48204;BME280;33994;50.998;5.864;2022-09-03T17:36:58;100560.44;;;22.94;53.21
48204;BME280;33994;50.998;5.864;2022-09-03T17:40:02;100565.97;;;22.91;53.34
48204;BME280;33994;50.998;5.864;2022-09-03T17:43:13;100568.84;;;22.88;53.30
48204;BME280;33994;50.998;5.864;2022-09-03T17:46:08;100569.81;;;22.87;53.39
48204;BME280;33994;50.998;5.864;2022-09-03T17:48:59;100573.44;;;22.86;53.56
48204;BME280;33994;50.998;5.864;2022-09-03T17:51:49;100577.28;;;22.82;54.07
48204;BME280;33994;50.998;5.864;2022-09-03T17:54:42;100578.47;;;22.78;54.11
48204;BME280;33994;50.998;5.864;2022-09-03T17:57:37;100584.88;;;22.75;54.51
48204;BME280;33994;50.998;5.864;2022-09-03T18:00:32;100587.00;;;22.70;54.82
48204;BME280;33994;50.998;5.864;2022-09-03T18:03:32;100594.38;;;22.67;55.43
48204;BME280;33994;50.998;5.864;2022-09-03T18:06:34;100593.69;;;22.63;55.85
48204;BME280;33994;50.998;5.864;2022-09-03T18:09:34;100590.47;;;22.58;55.97
48204;BME280;33994;50.998;5.864;2022-09-03T18:15:16;100596.22;;;22.52;56.47
48204;BME280;33994;50.998;5.864;2022-09-03T18:18:23;100602.81;;;22.46;56.95
48204;BME280;33994;50.998;5.864;2022-09-03T18:21:16;100611.13;;;22.42;56.51
48204;BME280;33994;50.998;5.864;2022-09-03T18:24:34;100616.78;;;22.37;57.08
48204;BME280;33994;50.998;5.864;2022-09-03T18:27:49;100615.28;;;22.33;57.04
48204;BME280;33994;50.998;5.864;2022-09-03T18:30:52;100623.47;;;22.30;57.08
48204;BME280;33994;50.998;5.864;2022-09-03T18:33:55;100629.00;;;22.27;57.30
48204;BME280;33994;50.998;5.864;2022-09-03T18:36:58;100633.78;;;22.22;57.73
48204;BME280;33994;50.998;5.864;2022-09-03T18:40:01;100631.53;;;22.16;57.97
48204;BME280;33994;50.998;5.864;2022-09-03T18:46:31;100632.34;;;22.03;58.21
48204;BME280;33994;50.998;5.864;2022-09-03T18:56:36;100630.66;;;21.88;58.93